Time;durP1;ratioP1;P1;durP2;ratioP2;P2;SDS_P1;SDS_P2;PMS_P1;PMS_P2;Temp;Humidity;BMP_temperature;BMP_pressure;BME280_temperature;BME280_humidity;BME280_pressure;Samples;Min_cycle;Max_cycle;Signal;HPM_P1;HPM_P2
2022/10/28 00:02:12;;;;;;;;;;;;;;;14.85;86.22852;101813.3;;;;-75
2022/10/28 00:07:12;;;;;;;;;;;;;;;14.85;86.20801;101807.8;;;;-75
2022/10/28 00:12:12;;;;;;;;;;;;;;;14.85;86.25293;101810.1;;;;-75
2022/10/28 00:17:12;;;;;;;;;;;;;;;14.86;86.49023;101802.6;;;;-76
2022/10/28 00:21:54;;;;;;;15.1;5.2;;;;;;;;;;;;;-76
2022/10/28 00:22:12;;;;;;;;;;;;;;;14.85;86.30859;101798.4;;;;-75
2022/10/28 00:27:12;;;;;;;;;;;;;;;14.83;86.23828;101788.6;;;;-74
2022/10/28 00:32:13;;;;;;;;;;;;;;;14.81;86.4248;101780.1;;;;-75
2022/10/28 00:37:12;;;;;;;;;;;;;;;14.78;86.78516;101776.2;;;;-76
2022/10/28 00:42:13;;;;;;;;;;;;;;;14.74;86.67773;101772;;;;-75
2022/10/28 00:47:15;;;;;;;;;;;;;;;14.71;86.69336;101773.9;;;;-75
2022/10/28 00:51:57;;;;;;;11.7;5.3;;;;;;;;;;;;;-70
2022/10/28 00:52:16;;;;;;;;;;;;;;;14.67;86.93066;101775.2;;;;-73
2022/10/28 00:57:15;;;;;;;;;;;;;;;14.63;87.1709;101785.6;;;;-71
2022/10/28 01:02:12;;;;;;;;;;;;;;;14.58;87.07129;101787.6;;;;-76
2022/10/28 01:07:13;;;;;;;;;;;;;;;14.54;87.30664;101779.4;;;;-75
2022/10/28 01:12:20;;;;;;;;;;;;;;;14.48;87.19629;101775.7;;;;-73
2022/10/28 01:17:26;;;;;;;;;;;;;;;14.42;86.97168;101767.5;;;;-75
2022/10/28 01:22:04;;;;;;;14.9;5.3;;;;;;;;;;;;;-74
2022/10/28 01:22:19;;;;;;;;;;;;;;;14.39;86.39844;101767.6;;;;-75
2022/10/28 01:27:36;;;;;;;;;;;;;;;14.35;87.32715;101762.9;;;;-75
2022/10/28 01:32:14;;;;;;;;;;;;;;;14.31;86.42676;101749.2;;;;-74
2022/10/28 01:37:16;;;;;;;;;;;;;;;14.27;86.92969;101753.8;;;;-75
2022/10/28 01:42:18;;;;;;;;;;;;;;;14.23;86.1084;101755.8;;;;-76
2022/10/28 01:47:15;;;;;;;;;;;;;;;14.21;86.16211;101748.6;;;;-75
2022/10/28 01:52:03;;;;;;;11.7;5;;;;;;;;;;;;;-74
2022/10/28 01:52:15;;;;;;;;;;;;;;;14.19;86.125;101744.8;;;;-75
2022/10/28 01:57:15;;;;;;;;;;;;;;;14.13;85.87891;101738.4;;;;-76
2022/10/28 02:02:17;;;;;;;;;;;;;;;14.07;85.94434;101726.3;;;;-75
2022/10/28 02:07:12;;;;;;;;;;;;;;;14.03;86.04883;101720.1;;;;-74
2022/10/28 02:12:23;;;;;;;;;;;;;;;14.01;85.77832;101722;;;;-76
2022/10/28 02:17:20;;;;;;;;;;;;;;;13.97;86.02734;101718.8;;;;-75
2022/10/28 02:22:07;;;;;;;12.9;5.1;;;;;;;;;;;;;-75
2022/10/28 02:22:22;;;;;;;;;;;;;;;13.94;86.5;101714.5;;;;-75
2022/10/28 02:27:15;;;;;;;;;;;;;;;13.89;85.94238;101712.4;;;;-74
2022/10/28 02:32:17;;;;;;;;;;;;;;;13.87;85.65137;101711.4;;;;-75
2022/10/28 02:37:16;;;;;;;;;;;;;;;13.83;85.78711;101705.6;;;;-75
2022/10/28 02:42:17;;;;;;;;;;;;;;;13.8;86.3252;101704.4;;;;-76
2022/10/28 02:47:17;;;;;;;;;;;;;;;13.76;86.17383;101704.5;;;;-75
2022/10/28 02:52:02;;;;;;;10.1;5;;;;;;;;;;;;;-76
2022/10/28 02:52:14;;;;;;;;;;;;;;;13.76;87.06543;101695.1;;;;-73
2022/10/28 02:57:15;;;;;;;;;;;;;;;13.71;86.18848;101689.4;;;;-75
2022/10/28 03:02:12;;;;;;;;;;;;;;;13.72;87.18945;101689.3;;;;-75
2022/10/28 03:07:12;;;;;;;;;;;;;;;13.67;86.9248;101683.2;;;;-75
2022/10/28 03:12:12;;;;;;;;;;;;;;;13.66;86.45605;101681.6;;;;-75
2022/10/28 03:17:12;;;;;;;;;;;;;;;13.66;87.24414;101679.8;;;;-74
2022/10/28 03:22:05;;;;;;;12.8;5.4;;;;;;;;;;;;;-75
2022/10/28 03:22:17;;;;;;;;;;;;;;;13.67;87.19141;101682.4;;;;-74
2022/10/28 03:27:15;;;;;;;;;;;;;;;13.65;87.56445;101681.3;;;;-76
2022/10/28 03:32:12;;;;;;;;;;;;;;;13.63;87.0957;101680.4;;;;-74
2022/10/28 03:37:12;;;;;;;;;;;;;;;13.6;87.02051;101675.5;;;;-74
2022/10/28 03:42:13;;;;;;;;;;;;;;;13.59;87.60938;101674.9;;;;-75
2022/10/28 03:47:12;;;;;;;;;;;;;;;13.57;87.2168;101670.5;;;;-75
2022/10/28 03:52:06;;;;;;;11.3;5.3;;;;;;;;;;;;;-74
2022/10/28 03:52:21;;;;;;;;;;;;;;;13.51;86.61523;101668;;;;-75
2022/10/28 03:57:12;;;;;;;;;;;;;;;13.51;87.50195;101666.2;;;;-74
2022/10/28 04:02:15;;;;;;;;;;;;;;;13.47;86.98535;101675.8;;;;-76
2022/10/28 04:07:12;;;;;;;;;;;;;;;13.42;86.94141;101663.1;;;;-76
2022/10/28 04:12:15;;;;;;;;;;;;;;;13.36;86.66211;101651.1;;;;-74
2022/10/28 04:17:12;;;;;;;;;;;;;;;13.36;87.54004;101654.7;;;;-76
2022/10/28 04:22:05;;;;;;;13.7;5.2;;;;;;;;;;;;;-76
2022/10/28 04:22:21;;;;;;;;;;;;;;;13.34;87.48242;101645;;;;-73
2022/10/28 04:27:12;;;;;;;;;;;;;;;13.29;87.09375;101653.3;;;;-74
2022/10/28 04:32:12;;;;;;;;;;;;;;;13.26;86.44238;101658.4;;;;-76
2022/10/28 04:37:12;;;;;;;;;;;;;;;13.23;86.21484;101663.7;;;;-75
2022/10/28 04:42:12;;;;;;;;;;;;;;;13.22;86.86914;101661.6;;;;-75
2022/10/28 04:47:12;;;;;;;;;;;;;;;13.19;86.54102;101651.1;;;;-75
2022/10/28 04:52:10;;;;;;;12.4;5;;;;;;;;;;;;;-75
2022/10/28 04:52:24;;;;;;;;;;;;;;;13.19;86.84082;101649.4;;;;-78
2022/10/28 04:57:12;;;;;;;;;;;;;;;13.11;86.52539;101645.4;;;;-75
2022/10/28 05:02:15;;;;;;;;;;;;;;;13.08;86.18652;101640.5;;;;-75
2022/10/28 05:07:13;;;;;;;;;;;;;;;13.06;86.48242;101638.4;;;;-75
2022/10/28 05:12:12;;;;;;;;;;;;;;;13.04;86.25684;101644.2;;;;-74
2022/10/28 05:17:13;;;;;;;;;;;;;;;13.03;86.75098;101635.1;;;;-75
2022/10/28 05:22:08;;;;;;;12.5;4.9;;;;;;;;;;;;;-75
2022/10/28 05:22:20;;;;;;;;;;;;;;;13.02;86.90723;101634.7;;;;-74
2022/10/28 05:27:12;;;;;;;;;;;;;;;13.05;87.25684;101624.2;;;;-76
2022/10/28 05:32:13;;;;;;;;;;;;;;;13.01;87.08301;101625.2;;;;-76
2022/10/28 05:37:12;;;;;;;;;;;;;;;13.03;87.24219;101631;;;;-74
2022/10/28 05:42:12;;;;;;;;;;;;;;;12.95;86.63672;101626.6;;;;-76
2022/10/28 05:47:12;;;;;;;;;;;;;;;12.97;87.12012;101630.5;;;;-75
2022/10/28 05:52:09;;;;;;;11.3;4.6;;;;;;;;;;;;;-75
2022/10/28 05:52:19;;;;;;;;;;;;;;;12.96;86.81641;101631.3;;;;-74
2022/10/28 05:57:12;;;;;;;;;;;;;;;12.95;87.15918;101628.7;;;;-76
2022/10/28 06:02:13;;;;;;;;;;;;;;;12.96;87.59375;101634;;;;-75
2022/10/28 06:07:12;;;;;;;;;;;;;;;12.93;86.96875;101631.4;;;;-74
2022/10/28 06:12:12;;;;;;;;;;;;;;;12.91;86.85254;101628.3;;;;-79
2022/10/28 06:17:13;;;;;;;;;;;;;;;12.87;87.15527;101635.4;;;;-75
2022/10/28 06:22:10;;;;;;;10.9;4.6;;;;;;;;;;;;;-74
2022/10/28 06:22:20;;;;;;;;;;;;;;;12.89;87.15918;101628.6;;;;-74
2022/10/28 06:27:13;;;;;;;;;;;;;;;12.88;87.44434;101644.6;;;;-76
2022/10/28 06:32:13;;;;;;;;;;;;;;;12.91;87.06152;101645.8;;;;-74
2022/10/28 06:37:13;;;;;;;;;;;;;;;12.89;86.96875;101641.3;;;;-75
2022/10/28 06:42:15;;;;;;;;;;;;;;;12.86;87.17578;101645.2;;;;-75
2022/10/28 06:47:12;;;;;;;;;;;;;;;12.85;87.16113;101638.4;;;;-75
2022/10/28 06:52:11;;;;;;;9.9;4.4;;;;;;;;;;;;;-75
2022/10/28 06:52:24;;;;;;;;;;;;;;;12.9;87.17188;101638.5;;;;-74
2022/10/28 06:57:12;;;;;;;;;;;;;;;12.89;87.03906;101641;;;;-75
2022/10/28 07:02:14;;;;;;;;;;;;;;;12.96;87.58496;101639.5;;;;-75
2022/10/28 07:07:12;;;;;;;;;;;;;;;12.94;87.00391;101642.6;;;;-74
2022/10/28 07:12:15;;;;;;;;;;;;;;;13.04;87.18848;101644.3;;;;-75
2022/10/28 07:17:12;;;;;;;;;;;;;;;13.13;88.05957;101644.4;;;;-76
2022/10/28 07:22:15;;;;;;;;;;;;;;;13.22;88.06836;101649;;;;-77
2022/10/28 07:22:24;;;;;;;11.1;4.5;;;;;;;;;;;;;-77
2022/10/28 07:27:12;;;;;;;;;;;;;;;13.27;88.3457;101660.3;;;;-75
2022/10/28 07:32:12;;;;;;;;;;;;;;;13.36;88.17383;101665;;;;-75
2022/10/28 07:37:14;;;;;;;;;;;;;;;13.44;87.83594;101667;;;;-75
2022/10/28 07:42:12;;;;;;;;;;;;;;;13.54;87.72266;101659.8;;;;-75
2022/10/28 07:47:12;;;;;;;;;;;;;;;13.67;87.80176;101656.2;;;;-74
2022/10/28 07:52:12;;;;;;;;;;;;;;;13.79;88.32715;101669.3;;;;-74
2022/10/28 07:52:22;;;;;;;9.6;4.6;;;;;;;;;;;;;-74
2022/10/28 07:57:12;;;;;;;;;;;;;;;13.89;87.64648;101670.9;;;;-74
2022/10/28 08:02:13;;;;;;;;;;;;;;;14;87.67969;101669.6;;;;-73
2022/10/28 08:07:12;;;;;;;;;;;;;;;14.1;87.73242;101677.6;;;;-74
2022/10/28 08:12:15;;;;;;;;;;;;;;;14.2;87.53906;101674.3;;;;-75
2022/10/28 08:17:12;;;;;;;;;;;;;;;14.26;87.85449;101690.1;;;;-75
2022/10/28 08:22:12;;;;;;;;;;;;;;;14.3;87.42773;101685.3;;;;-75
2022/10/28 08:22:21;;;;;;;15.3;4.6;;;;;;;;;;;;;-75
2022/10/28 08:27:12;;;;;;;;;;;;;;;14.34;87.43457;101684.6;;;;-75
2022/10/28 08:32:16;;;;;;;;;;;;;;;14.39;87.41211;101690.4;;;;-75
2022/10/28 08:37:14;;;;;;;;;;;;;;;14.44;87.63281;101688.7;;;;-74
2022/10/28 08:42:22;;;;;;;;;;;;;;;14.52;87.28125;101684.7;;;;-75
2022/10/28 08:47:18;;;;;;;;;;;;;;;14.68;86.95508;101677.4;;;;-75
2022/10/28 08:52:17;;;;;;;;;;;;;;;14.88;86.1709;101684.8;;;;-74
2022/10/28 08:52:30;;;;;;;12.5;4.5;;;;;;;;;;;;;-74
2022/10/28 08:57:17;;;;;;;;;;;;;;;15.12;86.60742;101679.4;;;;-74
2022/10/28 09:02:21;;;;;;;;;;;;;;;15.24;86.08398;101679.8;;;;-75
2022/10/28 09:07:17;;;;;;;;;;;;;;;15.31;85.67383;101670;;;;-75
2022/10/28 09:12:22;;;;;;;;;;;;;;;15.46;84.70898;101676;;;;-75
2022/10/28 09:17:19;;;;;;;;;;;;;;;15.6;84.5;101670.7;;;;-74
2022/10/28 09:22:20;;;;;;;;;;;;;;;15.67;84.07813;101667.8;;;;-74
2022/10/28 09:22:34;;;;;;;10.7;4.2;;;;;;;;;;;;;-74
2022/10/28 09:27:19;;;;;;;;;;;;;;;15.83;85.0791;101671.4;;;;-73
2022/10/28 09:32:17;;;;;;;;;;;;;;;15.93;83.75684;101661.6;;;;-75
2022/10/28 09:37:16;;;;;;;;;;;;;;;16.11;83.64551;101662.9;;;;-74
2022/10/28 09:42:20;;;;;;;;;;;;;;;16.38;82.66504;101657.3;;;;-74
2022/10/28 09:47:17;;;;;;;;;;;;;;;16.59;82.44629;101666.3;;;;-74
2022/10/28 09:52:14;;;;;;;;;;;;;;;16.82;81.16504;101670.9;;;;-75
2022/10/28 09:52:26;;;;;;;13.7;4.3;;;;;;;;;;;;;-75
2022/10/28 09:57:15;;;;;;;;;;;;;;;17.12;80.3457;101667.5;;;;-74
2022/10/28 10:02:22;;;;;;;;;;;;;;;17.27;80.0459;101664.2;;;;-75
2022/10/28 10:07:14;;;;;;;;;;;;;;;17.61;78.9707;101656.8;;;;-75
2022/10/28 10:12:13;;;;;;;;;;;;;;;17.7;79.03125;101663;;;;-75
2022/10/28 10:17:15;;;;;;;;;;;;;;;17.91;77.78516;101663.4;;;;-74
2022/10/28 10:22:22;;;;;;;;;;;;;;;18.01;77.56641;101641.4;;;;-75
2022/10/28 10:22:36;;;;;;;10.5;3.8;;;;;;;;;;;;;-75
2022/10/28 10:27:22;;;;;;;;;;;;;;;18.11;77.31348;101632.6;;;;-75
2022/10/28 10:32:20;;;;;;;;;;;;;;;18.33;77.11426;101624.9;;;;-74
2022/10/28 10:37:19;;;;;;;;;;;;;;;18.55;77.57129;101636.5;;;;-75
2022/10/28 10:42:26;;;;;;;;;;;;;;;18.64;76.75098;101643.5;;;;-75
2022/10/28 10:47:25;;;;;;;;;;;;;;;18.81;76.02441;101638.8;;;;-74
2022/10/28 10:52:18;;;;;;;;;;;;;;;18.86;75.875;101635.8;;;;-73
2022/10/28 10:52:28;;;;;;;10.9;3.8;;;;;;;;;;;;;-73
2022/10/28 10:57:19;;;;;;;;;;;;;;;18.84;75.90625;101631.3;;;;-75
2022/10/28 11:02:22;;;;;;;;;;;;;;;18.86;76.22559;101642.4;;;;-74
2022/10/28 11:07:18;;;;;;;;;;;;;;;18.8;76.42871;101639.2;;;;-74
2022/10/28 11:12:28;;;;;;;;;;;;;;;18.8;76.2373;101639.2;;;;-74
2022/10/28 11:17:23;;;;;;;;;;;;;;;18.8;76.36133;101639.6;;;;-74
2022/10/28 11:22:18;;;;;;;;;;;;;;;18.8;76.58691;101629.4;;;;-74
2022/10/28 11:22:31;;;;;;;11.6;4.4;;;;;;;;;;;;;-74
2022/10/28 11:27:20;;;;;;;;;;;;;;;18.79;76.57422;101639.8;;;;-74
2022/10/28 11:32:28;;;;;;;;;;;;;;;18.79;76.50684;101624.9;;;;-75
2022/10/28 11:37:14;;;;;;;;;;;;;;;18.78;77.23828;101635.4;;;;-75
2022/10/28 11:42:19;;;;;;;;;;;;;;;18.83;77.19043;101654.2;;;;-74
2022/10/28 11:47:21;;;;;;;;;;;;;;;18.83;76.74023;101647.3;;;;-75
2022/10/28 11:52:19;;;;;;;;;;;;;;;18.88;76.89453;101661.7;;;;-74
2022/10/28 11:52:33;;;;;;;14.5;4.6;;;;;;;;;;;;;-73
2022/10/28 11:57:14;;;;;;;;;;;;;;;18.9;76.7627;101644.9;;;;-74
2022/10/28 12:02:22;;;;;;;;;;;;;;;18.98;76.50488;101642.4;;;;-75
2022/10/28 12:07:35;;;;;;;;;;;;;;;19.04;76.25684;101645.4;;;;-74
2022/10/28 12:12:18;;;;;;;;;;;;;;;19.08;76.27441;101653.5;;;;-76
2022/10/28 12:17:16;;;;;;;;;;;;;;;19.12;76.07715;101654.5;;;;-74
2022/10/28 12:22:16;;;;;;;;;;;;;;;19.15;75.90234;101658.7;;;;-74
2022/10/28 12:22:34;;;;;;;13.8;4.3;;;;;;;;;;;;;-75
2022/10/28 12:27:16;;;;;;;;;;;;;;;19.21;75.66309;101668.7;;;;-74
2022/10/28 12:32:14;;;;;;;;;;;;;;;19.21;75.70801;101685.5;;;;-74
2022/10/28 12:37:14;;;;;;;;;;;;;;;19.22;75.53027;101696;;;;-74
2022/10/28 12:42:15;;;;;;;;;;;;;;;19.2;75.74023;101688.4;;;;-76
2022/10/28 12:47:17;;;;;;;;;;;;;;;19.15;75.8457;101691.8;;;;-74
2022/10/28 12:52:21;;;;;;;;;;;;;;;19.16;75.90234;101683.8;;;;-75
2022/10/28 12:52:39;;;;;;;15.3;4.5;;;;;;;;;;;;;-73
2022/10/28 12:57:15;;;;;;;;;;;;;;;19.21;75.77637;101683.1;;;;-74
2022/10/28 13:02:16;;;;;;;;;;;;;;;19.24;75.72559;101691.3;;;;-75
2022/10/28 13:07:20;;;;;;;;;;;;;;;19.24;75.55566;101699.9;;;;-75
2022/10/28 13:12:23;;;;;;;;;;;;;;;19.19;75.55957;101714.5;;;;-74
2022/10/28 13:17:23;;;;;;;;;;;;;;;19.18;75.27441;101733.1;;;;-75
2022/10/28 13:22:28;;;;;;;;;;;;;;;19.13;75.25488;101722.4;;;;-74
2022/10/28 13:22:49;;;;;;;12.8;3.6;;;;;;;;;;;;;-74
2022/10/28 13:27:14;;;;;;;;;;;;;;;19.13;75.52539;101720.8;;;;-75
2022/10/28 13:32:22;;;;;;;;;;;;;;;19.14;75.62793;101706.2;;;;-73
2022/10/28 13:37:21;;;;;;;;;;;;;;;19.12;75.35547;101709.3;;;;-75
2022/10/28 13:42:23;;;;;;;;;;;;;;;19.08;75.4043;101722.3;;;;-76
2022/10/28 13:47:23;;;;;;;;;;;;;;;19.11;75.57813;101716.9;;;;-74
2022/10/28 13:52:21;;;;;;;;;;;;;;;19.13;75.50391;101734.6;;;;-74
2022/10/28 13:52:40;;;;;;;14.7;3.8;;;;;;;;;;;;;-74
2022/10/28 13:57:16;;;;;;;;;;;;;;;19.07;75.78711;101732.5;;;;-73
2022/10/28 14:02:26;;;;;;;;;;;;;;;19.06;75.95313;101734.4;;;;-73
2022/10/28 14:07:20;;;;;;;;;;;;;;;19.07;75.87695;101749.4;;;;-75
2022/10/28 14:12:32;;;;;;;;;;;;;;;19.05;76.06641;101748.6;;;;-75
2022/10/28 14:17:22;;;;;;;;;;;;;;;19.04;76.09863;101744.6;;;;-74
2022/10/28 14:22:12;;;;;;;;;;;;;;;19.04;76.2002;101754.2;;;;-73
2022/10/28 14:22:42;;;;;;;14.9;3.7;;;;;;;;;;;;;-74
2022/10/28 14:27:32;;;;;;;;;;;;;;;19.03;76.21973;101763.7;;;;-73
2022/10/28 14:32:23;;;;;;;;;;;;;;;18.98;76.3584;101765.5;;;;-74
2022/10/28 14:37:21;;;;;;;;;;;;;;;18.92;76.37207;101771.9;;;;-74
2022/10/28 14:42:30;;;;;;;;;;;;;;;18.87;76.72363;101774.9;;;;-75
2022/10/28 14:47:24;;;;;;;;;;;;;;;18.84;76.79785;101781.1;;;;-74
2022/10/28 14:52:17;;;;;;;;;;;;;;;18.77;77;101783.5;;;;-75
2022/10/28 14:52:45;;;;;;;14.6;3.3;;;;;;;;;;;;;-75
2022/10/28 14:57:15;;;;;;;;;;;;;;;18.76;77.17773;101788.6;;;;-73
2022/10/28 15:02:17;;;;;;;;;;;;;;;18.71;77.8125;101799.9;;;;-74
2022/10/28 15:07:14;;;;;;;;;;;;;;;18.64;77.65527;101792.2;;;;-74
2022/10/28 15:12:14;;;;;;;;;;;;;;;18.62;77.66113;101801.1;;;;-75
2022/10/28 15:17:22;;;;;;;;;;;;;;;18.56;78.46387;101812.7;;;;-75
2022/10/28 15:22:15;;;;;;;;;;;;;;;18.49;78.37207;101807.7;;;;-76
2022/10/28 15:22:47;;;;;;;12.8;3.4;;;;;;;;;;;;;-74
2022/10/28 15:27:14;;;;;;;;;;;;;;;18.41;78.98828;101818.7;;;;-74
2022/10/28 15:32:15;;;;;;;;;;;;;;;18.37;78.96191;101828.4;;;;-75
2022/10/28 15:37:12;;;;;;;;;;;;;;;18.31;79.50098;101833.1;;;;-74
2022/10/28 15:42:29;;;;;;;;;;;;;;;18.24;79.53223;101839.6;;;;-76
2022/10/28 15:47:18;;;;;;;;;;;;;;;18.18;80.0293;101853.8;;;;-74
2022/10/28 15:52:26;;;;;;;;;;;;;;;18.1;80.17383;101847.6;;;;-74
2022/10/28 15:52:51;;;;;;;15.7;3.2;;;;;;;;;;;;;-74
2022/10/28 15:57:23;;;;;;;;;;;;;;;18.01;80.32617;101856.7;;;;-74
2022/10/28 16:02:26;;;;;;;;;;;;;;;17.95;80.6748;101855.3;;;;-75
2022/10/28 16:07:14;;;;;;;;;;;;;;;17.86;80.87109;101872.1;;;;-74
2022/10/28 16:12:22;;;;;;;;;;;;;;;17.77;80.75586;101861.6;;;;-74
2022/10/28 16:17:16;;;;;;;;;;;;;;;17.68;81.00781;101868.4;;;;-76
2022/10/28 16:22:13;;;;;;;;;;;;;;;17.59;81.21582;101875.8;;;;-74
2022/10/28 16:22:52;;;;;;;15;3.4;;;;;;;;;;;;;-75
2022/10/28 16:27:25;;;;;;;;;;;;;;;17.51;81.50488;101892;;;;-74
2022/10/28 16:32:14;;;;;;;;;;;;;;;17.45;81.48145;101907.1;;;;-74
2022/10/28 16:37:21;;;;;;;;;;;;;;;17.35;81.74609;101912.9;;;;-74
2022/10/28 16:42:13;;;;;;;;;;;;;;;17.27;81.74219;101908.8;;;;-78
2022/10/28 16:47:16;;;;;;;;;;;;;;;17.19;81.6377;101931.3;;;;-76
2022/10/28 16:52:16;;;;;;;;;;;;;;;17.06;81.55762;101930.8;;;;-74
2022/10/28 16:52:55;;;;;;;12.9;2.8;;;;;;;;;;;;;-76
2022/10/28 16:57:12;;;;;;;;;;;;;;;17;81.62598;101944.4;;;;-75
2022/10/28 17:02:16;;;;;;;;;;;;;;;16.91;81.57422;101959.6;;;;-75
2022/10/28 17:07:15;;;;;;;;;;;;;;;16.84;81.5498;101962.3;;;;-75
2022/10/28 17:12:14;;;;;;;;;;;;;;;16.74;81.51074;101957.6;;;;-75
2022/10/28 17:17:13;;;;;;;;;;;;;;;16.65;81.74023;101964.8;;;;-75
2022/10/28 17:22:12;;;;;;;;;;;;;;;16.58;81.79395;101967;;;;-75
2022/10/28 17:22:56;;;;;;;11.8;2.5;;;;;;;;;;;;;-74
2022/10/28 17:27:12;;;;;;;;;;;;;;;16.51;81.75977;101967.4;;;;-75
2022/10/28 17:32:12;;;;;;;;;;;;;;;16.46;81.81738;101988.8;;;;-75
2022/10/28 17:37:13;;;;;;;;;;;;;;;16.38;81.86035;101990.5;;;;-75
2022/10/28 17:42:17;;;;;;;;;;;;;;;16.32;81.9248;101992.4;;;;-75
2022/10/28 17:47:12;;;;;;;;;;;;;;;16.25;82.06055;101999.9;;;;-75
2022/10/28 17:52:12;;;;;;;;;;;;;;;16.17;82.08887;102001.6;;;;-76
2022/10/28 17:52:59;;;;;;;10.7;2.3;;;;;;;;;;;;;-76
2022/10/28 17:57:12;;;;;;;;;;;;;;;16.12;82.20313;102012;;;;-75
2022/10/28 18:02:16;;;;;;;;;;;;;;;16.03;82.34277;102028.4;;;;-74
2022/10/28 18:07:12;;;;;;;;;;;;;;;15.98;82.35742;102042.5;;;;-76
2022/10/28 18:12:16;;;;;;;;;;;;;;;15.92;82.40137;102038.3;;;;-74
2022/10/28 18:17:16;;;;;;;;;;;;;;;15.86;82.52344;102054.7;;;;-75
2022/10/28 18:22:12;;;;;;;;;;;;;;;15.79;82.49902;102044;;;;-75
2022/10/28 18:23:00;;;;;;;9.7;1.9;;;;;;;;;;;;;-76
2022/10/28 18:27:15;;;;;;;;;;;;;;;15.72;82.7207;102035.1;;;;-74
2022/10/28 18:32:15;;;;;;;;;;;;;;;15.66;82.36328;102038.8;;;;-75
2022/10/28 18:37:14;;;;;;;;;;;;;;;15.63;82.71582;102054.9;;;;-73
2022/10/28 18:42:19;;;;;;;;;;;;;;;15.56;82.07617;102051;;;;-73
2022/10/28 18:47:12;;;;;;;;;;;;;;;15.45;81.86621;102061;;;;-75
2022/10/28 18:52:15;;;;;;;;;;;;;;;15.4;82.06836;102067.4;;;;-74
2022/10/28 18:53:03;;;;;;;9.6;1.9;;;;;;;;;;;;;-75
2022/10/28 18:57:15;;;;;;;;;;;;;;;15.31;82.37598;102076.4;;;;-74
2022/10/28 19:02:15;;;;;;;;;;;;;;;15.23;82.2168;102090.1;;;;-75
2022/10/28 19:07:14;;;;;;;;;;;;;;;15.17;82.37305;102077.7;;;;-75
2022/10/28 19:12:15;;;;;;;;;;;;;;;15.09;82.42578;102070.7;;;;-74
2022/10/28 19:17:15;;;;;;;;;;;;;;;15.08;82.78223;102070.8;;;;-75
2022/10/28 19:22:18;;;;;;;;;;;;;;;15.09;83.0625;102078.2;;;;-75
2022/10/28 19:23:09;;;;;;;9.5;1.5;;;;;;;;;;;;;-76
2022/10/28 19:27:12;;;;;;;;;;;;;;;15.05;83.04297;102077.9;;;;-76
2022/10/28 19:32:26;;;;;;;;;;;;;;;15.04;83.03027;102080.6;;;;-75
2022/10/28 19:37:20;;;;;;;;;;;;;;;15.03;83.20703;102080.9;;;;-75
2022/10/28 19:42:20;;;;;;;;;;;;;;;15;83.07715;102096.7;;;;-76
2022/10/28 19:47:20;;;;;;;;;;;;;;;14.94;83.7041;102099.4;;;;-76
2022/10/28 19:52:20;;;;;;;;;;;;;;;14.9;83.67285;102102.2;;;;-75
2022/10/28 19:53:07;;;;;;;8.2;1.7;;;;;;;;;;;;;-75
2022/10/28 19:57:19;;;;;;;;;;;;;;;14.83;83.58105;102107.2;;;;-75
2022/10/28 20:02:19;;;;;;;;;;;;;;;14.73;84.10156;102121.8;;;;-74
2022/10/28 20:07:22;;;;;;;;;;;;;;;14.65;83.99414;102147.3;;;;-75
2022/10/28 20:12:20;;;;;;;;;;;;;;;14.6;83.81836;102144.6;;;;-74
2022/10/28 20:17:19;;;;;;;;;;;;;;;14.52;83.91406;102146.1;;;;-74
2022/10/28 20:22:20;;;;;;;;;;;;;;;14.45;84.0918;102150.3;;;;-74
2022/10/28 20:23:06;;;;;;;11.1;1.9;;;;;;;;;;;;;-75
2022/10/28 20:27:20;;;;;;;;;;;;;;;14.39;84.42578;102157.3;;;;-75
2022/10/28 20:32:21;;;;;;;;;;;;;;;14.34;84.33691;102149.7;;;;-74
2022/10/28 20:37:22;;;;;;;;;;;;;;;14.28;84.42676;102153.9;;;;-74
2022/10/28 20:42:19;;;;;;;;;;;;;;;14.21;84.32422;102150.6;;;;-75
2022/10/28 20:47:19;;;;;;;;;;;;;;;14.15;84.55664;102159.7;;;;-75
2022/10/28 20:52:19;;;;;;;;;;;;;;;14.11;84.63867;102168.5;;;;-74
2022/10/28 20:53:09;;;;;;;11.3;1.8;;;;;;;;;;;;;-75
2022/10/28 20:57:19;;;;;;;;;;;;;;;14.04;84.6377;102166.9;;;;-75
2022/10/28 21:02:20;;;;;;;;;;;;;;;13.97;84.86719;102177.3;;;;-75
2022/10/28 21:07:19;;;;;;;;;;;;;;;13.93;84.84863;102183.7;;;;-75
2022/10/28 21:12:20;;;;;;;;;;;;;;;13.9;84.85449;102169.6;;;;-75
2022/10/28 21:17:19;;;;;;;;;;;;;;;13.83;85.12109;102172.7;;;;-74
2022/10/28 21:22:21;;;;;;;;;;;;;;;13.77;85.26465;102176.9;;;;-74
2022/10/28 21:23:10;;;;;;;7.9;1.9;;;;;;;;;;;;;-75
2022/10/28 21:27:19;;;;;;;;;;;;;;;13.73;85.0332;102181.4;;;;-76
2022/10/28 21:32:19;;;;;;;;;;;;;;;13.67;84.94434;102182.6;;;;-76
2022/10/28 21:37:23;;;;;;;;;;;;;;;13.63;85.37012;102177.9;;;;-77
2022/10/28 21:42:20;;;;;;;;;;;;;;;13.58;85.12598;102182.8;;;;-76
2022/10/28 21:47:20;;;;;;;;;;;;;;;13.54;85.13184;102183.4;;;;-75
2022/10/28 21:52:19;;;;;;;;;;;;;;;13.49;85.0752;102183.4;;;;-75
2022/10/28 21:53:10;;;;;;;11.2;1.7;;;;;;;;;;;;;-77
2022/10/28 21:57:19;;;;;;;;;;;;;;;13.45;85.3584;102192.4;;;;-75
2022/10/28 22:02:19;;;;;;;;;;;;;;;13.43;85.34375;102192.7;;;;-76
2022/10/28 22:07:20;;;;;;;;;;;;;;;13.42;85.34082;102187.3;;;;-76
2022/10/28 22:12:19;;;;;;;;;;;;;;;13.36;85.11816;102196.9;;;;-75
2022/10/28 22:17:20;;;;;;;;;;;;;;;13.33;85.11133;102192.8;;;;-75
2022/10/28 22:22:19;;;;;;;;;;;;;;;13.31;85.25293;102204.4;;;;-75
2022/10/28 22:23:11;;;;;;;7.8;1.7;;;;;;;;;;;;;-74
2022/10/28 22:27:19;;;;;;;;;;;;;;;13.25;85.15137;102205.7;;;;-76
2022/10/28 22:32:19;;;;;;;;;;;;;;;13.23;85.61426;102213.6;;;;-76
2022/10/28 22:37:19;;;;;;;;;;;;;;;13.22;85.76855;102214.2;;;;-73
2022/10/28 22:42:19;;;;;;;;;;;;;;;13.16;85.55566;102212.2;;;;-76
2022/10/28 22:47:19;;;;;;;;;;;;;;;13.14;85.62988;102206.5;;;;-75
2022/10/28 22:52:19;;;;;;;;;;;;;;;13.11;85.55859;102212.7;;;;-75
2022/10/28 22:53:12;;;;;;;9;2;;;;;;;;;;;;;-75
2022/10/28 22:57:22;;;;;;;;;;;;;;;13.08;85.31934;102207.5;;;;-75
2022/10/28 23:02:19;;;;;;;;;;;;;;;13.07;85.47363;102216.3;;;;-75
2022/10/28 23:07:20;;;;;;;;;;;;;;;13.05;85.67969;102223.1;;;;-75
2022/10/28 23:12:19;;;;;;;;;;;;;;;13.02;85.28516;102219;;;;-75
2022/10/28 23:17:19;;;;;;;;;;;;;;;12.98;85.67578;102212.8;;;;-76
2022/10/28 23:22:19;;;;;;;;;;;;;;;12.96;85.46387;102204.6;;;;-75
2022/10/28 23:23:13;;;;;;;9;2.1;;;;;;;;;;;;;-75
2022/10/28 23:27:19;;;;;;;;;;;;;;;12.94;85.42676;102216.8;;;;-75
2022/10/28 23:32:19;;;;;;;;;;;;;;;12.93;85.74707;102218.9;;;;-75
2022/10/28 23:37:19;;;;;;;;;;;;;;;12.93;85.98926;102215.5;;;;-74
2022/10/28 23:42:19;;;;;;;;;;;;;;;12.93;85.3584;102220.4;;;;-75
2022/10/28 23:47:19;;;;;;;;;;;;;;;12.94;85.80273;102223;;;;-76
2022/10/28 23:52:19;;;;;;;;;;;;;;;12.93;85.50098;102222.8;;;;-75
2022/10/28 23:53:15;;;;;;;11.3;2.3;;;;;;;;;;;;;-76
2022/10/28 23:57:19;;;;;;;;;;;;;;;12.93;86.04492;102213.3;;;;-75
